sensor_id;sensor_type;location;lat;lon;timestamp;pressure;altitude;pressure_sealevel;temperature;humidity
62025;BME280;47978;49.118;12.146;2023-06-10T00:01:51;97169.53;;;13.56;94.37
62025;BME280;47978;49.118;12.146;2023-06-10T00:05:54;97165.78;;;13.52;95.07
62025;BME280;47978;49.118;12.146;2023-06-10T00:09:56;97170.22;;;13.44;95.09
62025;BME280;47978;49.118;12.146;2023-06-10T00:13:58;97160.94;;;13.32;95.82
62025;BME280;47978;49.118;12.146;2023-06-10T00:17:59;97165.06;;;13.25;96.05
62025;BME280;47978;49.118;12.146;2023-06-10T00:22:02;97159.31;;;13.22;96.61
62025;BME280;47978;49.118;12.146;2023-06-10T00:26:04;97162.63;;;13.15;96.59
62025;BME280;47978;49.118;12.146;2023-06-10T00:30:06;97156.75;;;13.08;96.87
62025;BME280;47978;49.118;12.146;2023-06-10T00:34:08;97164.44;;;13.02;97.15
62025;BME280;47978;49.118;12.146;2023-06-10T00:38:13;97163.13;;;13.00;97.42
62025;BME280;47978;49.118;12.146;2023-06-10T00:42:15;97153.50;;;12.97;97.81
62025;BME280;47978;49.118;12.146;2023-06-10T00:46:17;97156.78;;;12.91;97.72
62025;BME280;47978;49.118;12.146;2023-06-10T00:50:18;97147.69;;;12.81;98.16
62025;BME280;47978;49.118;12.146;2023-06-10T00:54:22;97145.88;;;12.86;98.11
62025;BME280;47978;49.118;12.146;2023-06-10T00:58:24;97148.00;;;12.80;98.10
62025;BME280;47978;49.118;12.146;2023-06-10T01:02:26;97146.69;;;12.69;98.23
62025;BME280;47978;49.118;12.146;2023-06-10T01:06:34;97139.38;;;12.64;98.60
62025;BME280;47978;49.118;12.146;2023-06-10T01:10:42;97141.66;;;12.62;98.44
62025;BME280;47978;49.118;12.146;2023-06-10T01:14:45;97149.50;;;12.60;99.45
62025;BME280;47978;49.118;12.146;2023-06-10T01:18:46;97148.03;;;12.63;99.53
62025;BME280;47978;49.118;12.146;2023-06-10T01:22:49;97152.75;;;12.62;99.43
62025;BME280;47978;49.118;12.146;2023-06-10T01:26:52;97147.22;;;12.53;99.84
62025;BME280;47978;49.118;12.146;2023-06-10T01:31:01;97151.47;;;12.51;100.00
62025;BME280;47978;49.118;12.146;2023-06-10T01:35:06;97154.22;;;12.51;100.00
62025;BME280;47978;49.118;12.146;2023-06-10T01:39:11;97141.31;;;12.55;99.82
62025;BME280;47978;49.118;12.146;2023-06-10T01:43:14;97151.78;;;12.49;99.96
62025;BME280;47978;49.118;12.146;2023-06-10T01:47:15;97150.16;;;12.48;100.00
62025;BME280;47978;49.118;12.146;2023-06-10T01:51:17;97146.22;;;12.49;100.00
62025;BME280;47978;49.118;12.146;2023-06-10T01:55:20;97149.19;;;12.62;100.00
62025;BME280;47978;49.118;12.146;2023-06-10T01:59:22;97150.16;;;12.57;99.97
62025;BME280;47978;49.118;12.146;2023-06-10T02:03:23;97143.13;;;12.59;100.00
62025;BME280;47978;49.118;12.146;2023-06-10T02:07:25;97143.63;;;12.62;100.00
62025;BME280;47978;49.118;12.146;2023-06-10T02:11:28;97149.50;;;12.60;100.00
62025;BME280;47978;49.118;12.146;2023-06-10T02:15:29;97157.50;;;12.53;100.00
62025;BME280;47978;49.118;12.146;2023-06-10T02:19:31;97151.97;;;12.53;100.00
62025;BME280;47978;49.118;12.146;2023-06-10T02:23:33;97156.19;;;12.50;100.00
62025;BME280;47978;49.118;12.146;2023-06-10T02:27:36;97159.78;;;12.42;100.00
62025;BME280;47978;49.118;12.146;2023-06-10T02:31:37;97160.59;;;12.34;100.00
62025;BME280;47978;49.118;12.146;2023-06-10T02:35:39;97158.47;;;12.31;100.00
62025;BME280;47978;49.118;12.146;2023-06-10T02:39:41;97165.34;;;12.33;100.00
62025;BME280;47978;49.118;12.146;2023-06-10T02:43:44;97169.72;;;12.26;100.00
62025;BME280;47978;49.118;12.146;2023-06-10T02:47:45;97159.28;;;12.23;100.00
62025;BME280;47978;49.118;12.146;2023-06-10T02:51:47;97160.44;;;12.22;100.00
62025;BME280;47978;49.118;12.146;2023-06-10T02:55:49;97166.94;;;12.17;100.00
62025;BME280;47978;49.118;12.146;2023-06-10T02:59:52;97165.81;;;12.18;100.00
62025;BME280;47978;49.118;12.146;2023-06-10T03:03:53;97172.16;;;12.10;100.00
62025;BME280;47978;49.118;12.146;2023-06-10T03:07:55;97166.78;;;12.05;100.00
62025;BME280;47978;49.118;12.146;2023-06-10T03:11:57;97164.97;;;12.00;100.00
62025;BME280;47978;49.118;12.146;2023-06-10T03:16:00;97167.25;;;11.98;100.00
62025;BME280;47978;49.118;12.146;2023-06-10T03:20:01;97164.63;;;11.93;100.00
62025;BME280;47978;49.118;12.146;2023-06-10T03:24:03;97170.94;;;11.85;100.00
62025;BME280;47978;49.118;12.146;2023-06-10T03:28:05;97175.97;;;11.83;100.00
62025;BME280;47978;49.118;12.146;2023-06-10T03:32:08;97172.28;;;11.87;100.00
62025;BME280;47978;49.118;12.146;2023-06-10T03:36:10;97181.53;;;11.83;100.00
62025;BME280;47978;49.118;12.146;2023-06-10T03:40:11;97177.94;;;11.82;100.00
62025;BME280;47978;49.118;12.146;2023-06-10T03:44:13;97182.16;;;11.80;100.00
62025;BME280;47978;49.118;12.146;2023-06-10T03:48:16;97178.75;;;11.83;100.00
62025;BME280;47978;49.118;12.146;2023-06-10T03:52:18;97176.97;;;11.78;100.00
62025;BME280;47978;49.118;12.146;2023-06-10T03:56:19;97183.13;;;11.84;100.00
62025;BME280;47978;49.118;12.146;2023-06-10T04:00:21;97192.16;;;11.89;100.00
62025;BME280;47978;49.118;12.146;2023-06-10T04:04:24;97193.81;;;11.90;100.00
62025;BME280;47978;49.118;12.146;2023-06-10T04:08:26;97194.31;;;11.92;100.00
62025;BME280;47978;49.118;12.146;2023-06-10T04:12:27;97193.31;;;11.97;100.00
62025;BME280;47978;49.118;12.146;2023-06-10T04:16:29;97199.88;;;12.01;100.00
62025;BME280;47978;49.118;12.146;2023-06-10T04:20:32;97195.28;;;12.05;100.00
62025;BME280;47978;49.118;12.146;2023-06-10T04:24:33;97193.03;;;12.16;100.00
62025;BME280;47978;49.118;12.146;2023-06-10T04:28:35;97205.59;;;12.22;100.00
62025;BME280;47978;49.118;12.146;2023-06-10T04:32:36;97197.44;;;12.17;100.00
62025;BME280;47978;49.118;12.146;2023-06-10T04:36:39;97202.81;;;12.22;100.00
62025;BME280;47978;49.118;12.146;2023-06-10T04:40:41;97192.25;;;12.33;100.00
62025;BME280;47978;49.118;12.146;2023-06-10T04:44:42;97206.78;;;12.38;100.00
62025;BME280;47978;49.118;12.146;2023-06-10T04:48:44;97196.50;;;12.65;100.00
62025;BME280;47978;49.118;12.146;2023-06-10T04:52:47;97195.16;;;12.71;100.00
62025;BME280;47978;49.118;12.146;2023-06-10T04:56:48;97196.25;;;13.14;100.00
62025;BME280;47978;49.118;12.146;2023-06-10T05:00:50;97196.34;;;14.41;93.67
62025;BME280;47978;49.118;12.146;2023-06-10T05:04:52;97188.16;;;15.90;83.70
62025;BME280;47978;49.118;12.146;2023-06-10T05:08:54;97194.25;;;17.41;77.55
62025;BME280;47978;49.118;12.146;2023-06-10T05:12:56;97200.16;;;19.44;68.73
62025;BME280;47978;49.118;12.146;2023-06-10T05:16:57;97205.28;;;20.84;64.02
62025;BME280;47978;49.118;12.146;2023-06-10T05:20:59;97195.69;;;23.04;55.77
62025;BME280;47978;49.118;12.146;2023-06-10T05:25:02;97197.28;;;22.98;55.83
62025;BME280;47978;49.118;12.146;2023-06-10T05:29:04;97194.31;;;23.82;54.48
62025;BME280;47978;49.118;12.146;2023-06-10T05:33:06;97192.84;;;25.51;50.05
62025;BME280;47978;49.118;12.146;2023-06-10T05:37:07;97196.19;;;25.31;49.65
62025;BME280;47978;49.118;12.146;2023-06-10T05:41:10;97191.47;;;26.81;45.70
62025;BME280;47978;49.118;12.146;2023-06-10T05:45:12;97185.75;;;25.14;50.16
62025;BME280;47978;49.118;12.146;2023-06-10T05:49:13;97185.13;;;26.66;47.73
62025;BME280;47978;49.118;12.146;2023-06-10T05:53:15;97186.06;;;26.49;49.90
62025;BME280;47978;49.118;12.146;2023-06-10T05:57:18;97189.22;;;28.50;44.39
62025;BME280;47978;49.118;12.146;2023-06-10T06:01:19;97192.09;;;29.13;43.22
62025;BME280;47978;49.118;12.146;2023-06-10T06:05:21;97192.53;;;28.68;44.87
62025;BME280;47978;49.118;12.146;2023-06-10T06:09:23;97189.53;;;28.28;44.54
62025;BME280;47978;49.118;12.146;2023-06-10T06:13:26;97196.13;;;25.39;48.70
62025;BME280;47978;49.118;12.146;2023-06-10T06:17:28;97195.16;;;24.50;51.18
62025;BME280;47978;49.118;12.146;2023-06-10T06:21:29;97189.28;;;23.18;54.06
62025;BME280;47978;49.118;12.146;2023-06-10T06:25:31;97193.16;;;24.15;51.88
62025;BME280;47978;49.118;12.146;2023-06-10T06:29:34;97183.59;;;26.96;45.78
62025;BME280;47978;49.118;12.146;2023-06-10T06:33:36;97179.81;;;26.23;46.56
62025;BME280;47978;49.118;12.146;2023-06-10T06:37:37;97192.34;;;24.39;50.71
62025;BME280;47978;49.118;12.146;2023-06-10T06:41:39;97196.69;;;24.98;48.92
62025;BME280;47978;49.118;12.146;2023-06-10T06:45:42;97179.31;;;25.87;48.44
62025;BME280;47978;49.118;12.146;2023-06-10T06:49:44;97191.41;;;25.10;49.63
62025;BME280;47978;49.118;12.146;2023-06-10T06:53:45;97195.91;;;24.86;50.38
62025;BME280;47978;49.118;12.146;2023-06-10T06:57:47;97191.13;;;24.26;52.05
62025;BME280;47978;49.118;12.146;2023-06-10T07:01:50;97195.03;;;23.46;54.02
62025;BME280;47978;49.118;12.146;2023-06-10T07:05:52;97204.22;;;25.47;48.94
62025;BME280;47978;49.118;12.146;2023-06-10T07:09:53;97196.91;;;27.98;43.09
62025;BME280;47978;49.118;12.146;2023-06-10T07:13:55;97197.06;;;29.49;40.72
62025;BME280;47978;49.118;12.146;2023-06-10T07:17:58;97212.75;;;26.10;45.99
62025;BME280;47978;49.118;12.146;2023-06-10T07:21:59;97205.56;;;26.51;46.95
62025;BME280;47978;49.118;12.146;2023-06-10T07:26:01;97199.94;;;27.23;45.46
62025;BME280;47978;49.118;12.146;2023-06-10T07:30:03;97200.56;;;27.68;44.27
62025;BME280;47978;49.118;12.146;2023-06-10T07:34:06;97206.00;;;26.42;45.63
62025;BME280;47978;49.118;12.146;2023-06-10T07:38:08;97206.97;;;27.45;42.93
62025;BME280;47978;49.118;12.146;2023-06-10T07:42:10;97210.66;;;28.03;42.01
62025;BME280;47978;49.118;12.146;2023-06-10T07:46:11;97205.38;;;27.44;41.84
62025;BME280;47978;49.118;12.146;2023-06-10T07:50:15;97198.75;;;26.82;44.33
62025;BME280;47978;49.118;12.146;2023-06-10T07:54:16;97217.50;;;25.57;45.83
62025;BME280;47978;49.118;12.146;2023-06-10T07:58:18;97221.00;;;24.27;49.56
62025;BME280;47978;49.118;12.146;2023-06-10T08:02:20;97220.97;;;24.81;49.60
62025;BME280;47978;49.118;12.146;2023-06-10T08:06:26;97219.91;;;23.19;53.19
62025;BME280;47978;49.118;12.146;2023-06-10T08:10:28;97221.13;;;22.49;55.96
62025;BME280;47978;49.118;12.146;2023-06-10T08:14:29;97223.28;;;22.77;55.70
62025;BME280;47978;49.118;12.146;2023-06-10T08:18:31;97227.09;;;22.40;57.73
62025;BME280;47978;49.118;12.146;2023-06-10T08:22:34;97214.25;;;23.16;55.44
62025;BME280;47978;49.118;12.146;2023-06-10T08:26:36;97228.00;;;23.28;56.03
62025;BME280;47978;49.118;12.146;2023-06-10T08:30:37;97231.59;;;22.52;57.18
62025;BME280;47978;49.118;12.146;2023-06-10T08:34:39;97231.50;;;24.30;53.38
62025;BME280;47978;49.118;12.146;2023-06-10T08:38:42;97229.91;;;24.58;49.75
62025;BME280;47978;49.118;12.146;2023-06-10T08:42:49;97226.94;;;26.07;48.35
62025;BME280;47978;49.118;12.146;2023-06-10T08:46:55;97211.47;;;26.15;45.61
62025;BME280;47978;49.118;12.146;2023-06-10T08:50:59;97213.22;;;25.98;44.52
62025;BME280;47978;49.118;12.146;2023-06-10T08:55:08;97210.34;;;26.05;44.53
62025;BME280;47978;49.118;12.146;2023-06-10T08:59:12;97219.88;;;26.29;43.36
62025;BME280;47978;49.118;12.146;2023-06-10T09:03:14;97207.25;;;26.82;43.05
62025;BME280;47978;49.118;12.146;2023-06-10T09:07:16;97213.34;;;26.81;42.52
62025;BME280;47978;49.118;12.146;2023-06-10T09:11:19;97210.09;;;27.54;41.23
62025;BME280;47978;49.118;12.146;2023-06-10T09:15:20;97207.44;;;26.64;42.47
62025;BME280;47978;49.118;12.146;2023-06-10T09:19:23;97210.72;;;26.11;44.37
62025;BME280;47978;49.118;12.146;2023-06-10T09:23:25;97217.38;;;24.23;48.33
62025;BME280;47978;49.118;12.146;2023-06-10T09:27:29;97216.72;;;23.28;51.63
62025;BME280;47978;49.118;12.146;2023-06-10T09:31:34;97212.91;;;24.72;49.35
62025;BME280;47978;49.118;12.146;2023-06-10T09:35:36;97214.78;;;25.32;48.24
62025;BME280;47978;49.118;12.146;2023-06-10T09:39:38;97208.41;;;25.00;49.07
62025;BME280;47978;49.118;12.146;2023-06-10T09:43:42;97219.38;;;23.94;49.09
62025;BME280;47978;49.118;12.146;2023-06-10T09:47:45;97210.53;;;24.45;48.76
62025;BME280;47978;49.118;12.146;2023-06-10T09:51:50;97218.19;;;24.31;48.73
62025;BME280;47978;49.118;12.146;2023-06-10T09:55:52;97211.69;;;24.77;47.73
62025;BME280;47978;49.118;12.146;2023-06-10T09:59:55;97208.25;;;25.43;48.16
62025;BME280;47978;49.118;12.146;2023-06-10T10:03:57;97207.56;;;25.17;48.10
62025;BME280;47978;49.118;12.146;2023-06-10T10:07:59;97212.84;;;25.08;48.45
62025;BME280;47978;49.118;12.146;2023-06-10T10:12:02;97211.22;;;25.03;48.57
62025;BME280;47978;49.118;12.146;2023-06-10T10:16:09;97198.81;;;24.47;48.29
62025;BME280;47978;49.118;12.146;2023-06-10T10:20:13;97197.94;;;24.86;49.04
62025;BME280;47978;49.118;12.146;2023-06-10T10:24:18;97206.47;;;24.29;49.56
62025;BME280;47978;49.118;12.146;2023-06-10T10:28:24;97202.72;;;23.53;51.21
62025;BME280;47978;49.118;12.146;2023-06-10T10:32:32;97207.22;;;23.72;52.70
62025;BME280;47978;49.118;12.146;2023-06-10T10:36:35;97201.88;;;23.42;51.89
62025;BME280;47978;49.118;12.146;2023-06-10T10:40:37;97199.91;;;23.56;50.59
62025;BME280;47978;49.118;12.146;2023-06-10T10:44:40;97201.22;;;23.95;49.88
62025;BME280;47978;49.118;12.146;2023-06-10T10:48:44;97195.94;;;23.86;49.53
62025;BME280;47978;49.118;12.146;2023-06-10T10:52:52;97207.22;;;23.79;51.43
62025;BME280;47978;49.118;12.146;2023-06-10T10:57:16;97207.84;;;23.19;52.69
62025;BME280;47978;49.118;12.146;2023-06-10T11:01:18;97203.34;;;23.10;52.96
62025;BME280;47978;49.118;12.146;2023-06-10T11:05:31;97204.25;;;23.36;52.67
62025;BME280;47978;49.118;12.146;2023-06-10T11:09:33;97203.88;;;23.34;52.79
62025;BME280;47978;49.118;12.146;2023-06-10T11:13:35;97199.59;;;23.83;52.82
62025;BME280;47978;49.118;12.146;2023-06-10T11:17:37;97199.19;;;24.53;52.48
62025;BME280;47978;49.118;12.146;2023-06-10T11:21:58;97192.22;;;25.15;52.12
62025;BME280;47978;49.118;12.146;2023-06-10T11:26:10;97192.66;;;24.84;50.93
62025;BME280;47978;49.118;12.146;2023-06-10T11:30:18;97201.22;;;24.23;52.86
62025;BME280;47978;49.118;12.146;2023-06-10T11:34:24;97197.59;;;24.34;53.52
62025;BME280;47978;49.118;12.146;2023-06-10T11:38:27;97193.13;;;23.83;55.24
62025;BME280;47978;49.118;12.146;2023-06-10T11:42:29;97187.50;;;23.83;57.45
62025;BME280;47978;49.118;12.146;2023-06-10T11:46:31;97179.75;;;24.83;54.05
62025;BME280;47978;49.118;12.146;2023-06-10T11:50:33;97177.03;;;25.57;52.84
62025;BME280;47978;49.118;12.146;2023-06-10T11:54:36;97176.56;;;25.73;49.06
62025;BME280;47978;49.118;12.146;2023-06-10T11:58:40;97188.16;;;25.19;51.97
62025;BME280;47978;49.118;12.146;2023-06-10T12:02:45;97188.72;;;24.46;53.75
62025;BME280;47978;49.118;12.146;2023-06-10T12:06:48;97187.09;;;23.91;56.94
62025;BME280;47978;49.118;12.146;2023-06-10T12:10:51;97188.28;;;24.05;56.84
62025;BME280;47978;49.118;12.146;2023-06-10T12:14:54;97184.25;;;23.77;57.84
62025;BME280;47978;49.118;12.146;2023-06-10T12:19:07;97183.44;;;23.80;57.17
62025;BME280;47978;49.118;12.146;2023-06-10T12:23:09;97181.44;;;23.81;58.84
62025;BME280;47978;49.118;12.146;2023-06-10T12:27:12;97188.69;;;23.89;59.07
62025;BME280;47978;49.118;12.146;2023-06-10T12:31:14;97182.25;;;24.17;59.51
62025;BME280;47978;49.118;12.146;2023-06-10T12:35:17;97187.03;;;24.81;57.22
62025;BME280;47978;49.118;12.146;2023-06-10T12:39:19;97177.81;;;24.44;56.68
62025;BME280;47978;49.118;12.146;2023-06-10T12:43:23;97174.84;;;25.16;55.60
62025;BME280;47978;49.118;12.146;2023-06-10T12:47:29;97170.16;;;24.45;57.02
62025;BME280;47978;49.118;12.146;2023-06-10T12:51:31;97166.91;;;24.39;58.62
62025;BME280;47978;49.118;12.146;2023-06-10T12:55:33;97157.81;;;25.23;54.75
62025;BME280;47978;49.118;12.146;2023-06-10T12:59:36;97159.84;;;25.93;52.12
62025;BME280;47978;49.118;12.146;2023-06-10T13:03:38;97151.75;;;25.91;53.34
62025;BME280;47978;49.118;12.146;2023-06-10T13:07:39;97143.66;;;25.90;52.17
62025;BME280;47978;49.118;12.146;2023-06-10T13:11:41;97155.94;;;24.70;56.45
62025;BME280;47978;49.118;12.146;2023-06-10T13:15:44;97159.63;;;24.42;54.44
62025;BME280;47978;49.118;12.146;2023-06-10T13:19:45;97167.31;;;24.02;54.45
62025;BME280;47978;49.118;12.146;2023-06-10T13:23:47;97180.19;;;23.82;61.64
62025;BME280;47978;49.118;12.146;2023-06-10T13:27:49;97181.44;;;24.20;59.45
62025;BME280;47978;49.118;12.146;2023-06-10T13:31:52;97174.59;;;24.03;62.30
62025;BME280;47978;49.118;12.146;2023-06-10T13:35:53;97160.84;;;24.12;57.97
62025;BME280;47978;49.118;12.146;2023-06-10T13:39:55;97152.38;;;24.09;56.78
62025;BME280;47978;49.118;12.146;2023-06-10T13:43:57;97168.53;;;24.26;55.77
62025;BME280;47978;49.118;12.146;2023-06-10T13:47:59;97155.59;;;23.93;54.11
62025;BME280;47978;49.118;12.146;2023-06-10T13:52:01;97160.47;;;24.28;52.38
62025;BME280;47978;49.118;12.146;2023-06-10T13:56:03;97150.75;;;24.33;55.25
62025;BME280;47978;49.118;12.146;2023-06-10T14:00:06;97157.94;;;23.44;52.89
62025;BME280;47978;49.118;12.146;2023-06-10T14:04:09;97160.78;;;23.58;56.29
62025;BME280;47978;49.118;12.146;2023-06-10T14:08:11;97154.75;;;23.67;60.51
62025;BME280;47978;49.118;12.146;2023-06-10T14:12:12;97140.97;;;24.73;49.25
62025;BME280;47978;49.118;12.146;2023-06-10T14:16:14;97138.81;;;25.13;47.20
62025;BME280;47978;49.118;12.146;2023-06-10T14:20:17;97153.16;;;24.63;47.34
62025;BME280;47978;49.118;12.146;2023-06-10T14:24:19;97161.66;;;24.34;49.16
62025;BME280;47978;49.118;12.146;2023-06-10T14:28:20;97172.56;;;23.96;49.33
62025;BME280;47978;49.118;12.146;2023-06-10T14:32:22;97175.34;;;23.82;49.52
62025;BME280;47978;49.118;12.146;2023-06-10T14:36:25;97178.56;;;23.66;48.78
62025;BME280;47978;49.118;12.146;2023-06-10T14:40:27;97176.53;;;23.63;49.76
62025;BME280;47978;49.118;12.146;2023-06-10T14:44:29;97178.13;;;23.61;48.51
62025;BME280;47978;49.118;12.146;2023-06-10T14:48:30;97171.34;;;23.87;49.52
62025;BME280;47978;49.118;12.146;2023-06-10T14:52:33;97172.56;;;23.93;50.11
62025;BME280;47978;49.118;12.146;2023-06-10T14:56:35;97171.34;;;24.19;49.44
62025;BME280;47978;49.118;12.146;2023-06-10T15:00:36;97168.13;;;24.17;49.90
62025;BME280;47978;49.118;12.146;2023-06-10T15:04:38;97168.53;;;24.26;50.83
62025;BME280;47978;49.118;12.146;2023-06-10T15:08:41;97163.25;;;24.24;51.17
62025;BME280;47978;49.118;12.146;2023-06-10T15:12:43;97166.91;;;24.39;49.90
62025;BME280;47978;49.118;12.146;2023-06-10T15:16:44;97167.31;;;24.31;51.35
62025;BME280;47978;49.118;12.146;2023-06-10T15:20:46;97148.31;;;24.42;51.05
62025;BME280;47978;49.118;12.146;2023-06-10T15:24:49;97158.75;;;24.77;50.77
62025;BME280;47978;49.118;12.146;2023-06-10T15:28:50;97166.06;;;24.71;50.52
62025;BME280;47978;49.118;12.146;2023-06-10T15:32:52;97177.38;;;24.35;50.52
62025;BME280;47978;49.118;12.146;2023-06-10T15:36:54;97171.75;;;24.07;51.89
62025;BME280;47978;49.118;12.146;2023-06-10T15:40:57;97177.38;;;23.78;53.15
62025;BME280;47978;49.118;12.146;2023-06-10T15:44:59;97184.63;;;23.75;54.03
62025;BME280;47978;49.118;12.146;2023-06-10T15:49:00;97173.78;;;23.92;53.86
62025;BME280;47978;49.118;12.146;2023-06-10T15:53:02;97174.09;;;23.51;54.75
62025;BME280;47978;49.118;12.146;2023-06-10T15:57:05;97180.53;;;23.55;53.89
62025;BME280;47978;49.118;12.146;2023-06-10T16:01:07;97188.63;;;23.60;52.44
62025;BME280;47978;49.118;12.146;2023-06-10T16:05:09;97189.38;;;23.43;51.74
62025;BME280;47978;49.118;12.146;2023-06-10T16:09:11;97187.03;;;23.63;51.26
62025;BME280;47978;49.118;12.146;2023-06-10T16:13:14;97187.72;;;23.24;52.08
62025;BME280;47978;49.118;12.146;2023-06-10T16:17:15;97192.06;;;23.07;52.79
62025;BME280;47978;49.118;12.146;2023-06-10T16:21:17;97190.88;;;23.11;53.24
62025;BME280;47978;49.118;12.146;2023-06-10T16:25:18;97197.69;;;23.03;53.07
62025;BME280;47978;49.118;12.146;2023-06-10T16:29:21;97198.50;;;23.04;53.03
62025;BME280;47978;49.118;12.146;2023-06-10T16:33:23;97187.66;;;23.09;52.97
62025;BME280;47978;49.118;12.146;2023-06-10T16:37:25;97181.25;;;23.20;53.38
62025;BME280;47978;49.118;12.146;2023-06-10T16:41:26;97179.56;;;23.01;54.85
62025;BME280;47978;49.118;12.146;2023-06-10T16:45:29;97175.28;;;23.46;53.25
62025;BME280;47978;49.118;12.146;2023-06-10T16:49:30;97175.78;;;23.81;54.29
62025;BME280;47978;49.118;12.146;2023-06-10T16:53:32;97176.19;;;24.18;52.57
62025;BME280;47978;49.118;12.146;2023-06-10T16:57:34;97178.63;;;24.20;52.01
62025;BME280;47978;49.118;12.146;2023-06-10T17:01:37;97187.91;;;24.06;52.47
62025;BME280;47978;49.118;12.146;2023-06-10T17:05:38;97198.31;;;23.70;53.13
62025;BME280;47978;49.118;12.146;2023-06-10T17:09:40;97199.84;;;23.42;53.59
62025;BME280;47978;49.118;12.146;2023-06-10T17:13:42;97201.13;;;23.63;54.26
62025;BME280;47978;49.118;12.146;2023-06-10T17:17:45;97209.66;;;23.81;53.07
62025;BME280;47978;49.118;12.146;2023-06-10T17:21:46;97208.72;;;23.48;53.17
62025;BME280;47978;49.118;12.146;2023-06-10T17:25:48;97216.00;;;23.52;53.43
62025;BME280;47978;49.118;12.146;2023-06-10T17:29:49;97235.34;;;23.43;50.96
62025;BME280;47978;49.118;12.146;2023-06-10T17:33:52;97241.84;;;22.81;53.19
62025;BME280;47978;49.118;12.146;2023-06-10T17:37:54;97245.97;;;22.36;56.37
62025;BME280;47978;49.118;12.146;2023-06-10T17:41:55;97266.78;;;22.24;58.42
62025;BME280;47978;49.118;12.146;2023-06-10T17:45:57;97266.81;;;21.87;61.26
62025;BME280;47978;49.118;12.146;2023-06-10T17:50:00;97267.28;;;21.96;61.01
62025;BME280;47978;49.118;12.146;2023-06-10T17:54:02;97276.59;;;21.63;58.46
62025;BME280;47978;49.118;12.146;2023-06-10T17:58:03;97269.38;;;21.65;57.93
62025;BME280;47978;49.118;12.146;2023-06-10T18:02:05;97272.09;;;21.54;58.35
62025;BME280;47978;49.118;12.146;2023-06-10T18:06:08;97281.25;;;21.48;57.29
62025;BME280;47978;49.118;12.146;2023-06-10T18:10:10;97275.47;;;21.71;57.10
62025;BME280;47978;49.118;12.146;2023-06-10T18:14:12;97282.44;;;21.81;58.46
62025;BME280;47978;49.118;12.146;2023-06-10T18:18:13;97296.28;;;21.32;59.29
62025;BME280;47978;49.118;12.146;2023-06-10T18:22:16;97293.31;;;20.92;62.40
62025;BME280;47978;49.118;12.146;2023-06-10T18:26:18;97289.31;;;20.93;63.25
62025;BME280;47978;49.118;12.146;2023-06-10T18:30:20;97290.56;;;20.45;64.13
62025;BME280;47978;49.118;12.146;2023-06-10T18:34:21;97290.97;;;20.44;64.82
62025;BME280;47978;49.118;12.146;2023-06-10T18:38:24;97301.81;;;20.22;65.82
62025;BME280;47978;49.118;12.146;2023-06-10T18:42:27;97309.72;;;19.94;66.50
62025;BME280;47978;49.118;12.146;2023-06-10T18:46:28;97314.34;;;20.06;66.04
62025;BME280;47978;49.118;12.146;2023-06-10T18:50:30;97316.44;;;19.89;67.17
62025;BME280;47978;49.118;12.146;2023-06-10T18:54:34;97323.63;;;19.48;67.49
62025;BME280;47978;49.118;12.146;2023-06-10T18:58:36;97319.53;;;19.26;69.66
62025;BME280;47978;49.118;12.146;2023-06-10T19:02:37;97326.47;;;19.13;70.75
62025;BME280;47978;49.118;12.146;2023-06-10T19:06:39;97328.34;;;18.89;70.92
62025;BME280;47978;49.118;12.146;2023-06-10T19:10:42;97341.09;;;18.71;71.74
62025;BME280;47978;49.118;12.146;2023-06-10T19:14:43;97335.06;;;18.53;72.85
62025;BME280;47978;49.118;12.146;2023-06-10T19:18:45;97339.91;;;18.24;74.45
62025;BME280;47978;49.118;12.146;2023-06-10T19:22:46;97357.34;;;18.17;74.27
62025;BME280;47978;49.118;12.146;2023-06-10T19:26:49;97360.88;;;18.30;74.57
62025;BME280;47978;49.118;12.146;2023-06-10T19:30:50;97348.84;;;18.30;73.28
62025;BME280;47978;49.118;12.146;2023-06-10T19:34:52;97353.66;;;18.29;73.35
62025;BME280;47978;49.118;12.146;2023-06-10T19:38:53;97357.00;;;18.51;71.93
62025;BME280;47978;49.118;12.146;2023-06-10T19:42:56;97363.22;;;18.60;72.50
62025;BME280;47978;49.118;12.146;2023-06-10T19:46:59;97367.41;;;18.50;72.24
62025;BME280;47978;49.118;12.146;2023-06-10T19:51:01;97376.22;;;18.52;72.59
62025;BME280;47978;49.118;12.146;2023-06-10T19:55:03;97380.38;;;18.58;71.91
62025;BME280;47978;49.118;12.146;2023-06-10T19:59:06;97389.97;;;18.41;73.49
62025;BME280;47978;49.118;12.146;2023-06-10T20:03:07;97378.59;;;18.50;72.75
62025;BME280;47978;49.118;12.146;2023-06-10T20:07:09;97387.91;;;18.54;73.28
62025;BME280;47978;49.118;12.146;2023-06-10T20:11:11;97376.97;;;18.49;74.04
62025;BME280;47978;49.118;12.146;2023-06-10T20:15:14;97373.88;;;18.38;73.64
62025;BME280;47978;49.118;12.146;2023-06-10T20:19:15;97386.63;;;18.36;73.40
62025;BME280;47978;49.118;12.146;2023-06-10T20:23:17;97387.06;;;18.38;72.71
62025;BME280;47978;49.118;12.146;2023-06-10T20:27:18;97373.06;;;18.38;72.79
62025;BME280;47978;49.118;12.146;2023-06-10T20:31:21;97374.44;;;18.28;73.25
62025;BME280;47978;49.118;12.146;2023-06-10T20:35:23;97369.91;;;18.24;73.62
62025;BME280;47978;49.118;12.146;2023-06-10T20:39:25;97372.16;;;18.18;73.50
62025;BME280;47978;49.118;12.146;2023-06-10T20:43:26;97373.59;;;18.12;74.07
62025;BME280;47978;49.118;12.146;2023-06-10T20:47:29;97364.00;;;18.13;73.29
62025;BME280;47978;49.118;12.146;2023-06-10T20:51:31;97379.66;;;18.14;73.40
62025;BME280;47978;49.118;12.146;2023-06-10T20:55:32;97374.38;;;17.96;75.98
62025;BME280;47978;49.118;12.146;2023-06-10T20:59:34;97375.50;;;17.80;76.57
62025;BME280;47978;49.118;12.146;2023-06-10T21:03:37;97384.56;;;17.89;76.37